sensor_id;sensor_type;location;lat;lon;timestamp;temperature;humidity
27747;DHT22;15138;51.012;4.692;2022-07-17T00:00:26;16.70;1.00
27747;DHT22;15138;51.012;4.692;2022-07-17T00:02:54;16.70;1.00
27747;DHT22;15138;51.012;4.692;2022-07-17T00:05:23;16.60;5.30
27747;DHT22;15138;51.012;4.692;2022-07-17T00:07:52;16.60;5.80
27747;DHT22;15138;51.012;4.692;2022-07-17T00:10:20;16.40;94.00
27747;DHT22;15138;51.012;4.692;2022-07-17T00:12:47;16.40;73.00
27747;DHT22;15138;51.012;4.692;2022-07-17T00:15:15;16.40;56.40
27747;DHT22;15138;51.012;4.692;2022-07-17T00:17:43;16.40;47.80
27747;DHT22;15138;51.012;4.692;2022-07-17T00:20:11;16.30;64.50
27747;DHT22;15138;51.012;4.692;2022-07-17T00:22:41;16.30;90.60
27747;DHT22;15138;51.012;4.692;2022-07-17T00:25:09;16.20;99.50
27747;DHT22;15138;51.012;4.692;2022-07-17T00:27:37;16.20;77.90
27747;DHT22;15138;51.012;4.692;2022-07-17T00:30:05;16.10;99.00
27747;DHT22;15138;51.012;4.692;2022-07-17T00:32:34;16.00;99.90
27747;DHT22;15138;51.012;4.692;2022-07-17T00:35:02;16.00;99.90
27747;DHT22;15138;51.012;4.692;2022-07-17T00:37:30;15.90;99.90
27747;DHT22;15138;51.012;4.692;2022-07-17T00:40:00;15.90;99.90
27747;DHT22;15138;51.012;4.692;2022-07-17T00:42:28;16.00;99.90
27747;DHT22;15138;51.012;4.692;2022-07-17T00:44:56;16.00;99.90
27747;DHT22;15138;51.012;4.692;2022-07-17T00:47:24;16.00;99.90
27747;DHT22;15138;51.012;4.692;2022-07-17T00:49:52;15.80;99.90
27747;DHT22;15138;51.012;4.692;2022-07-17T00:52:19;15.70;99.90
27747;DHT22;15138;51.012;4.692;2022-07-17T00:54:47;15.70;99.90
27747;DHT22;15138;51.012;4.692;2022-07-17T00:57:37;15.70;99.90
27747;DHT22;15138;51.012;4.692;2022-07-17T01:00:07;15.70;99.90
27747;DHT22;15138;51.012;4.692;2022-07-17T01:02:44;15.70;99.90
27747;DHT22;15138;51.012;4.692;2022-07-17T01:05:12;15.70;99.90
27747;DHT22;15138;51.012;4.692;2022-07-17T01:07:46;15.60;99.90
27747;DHT22;15138;51.012;4.692;2022-07-17T01:10:14;15.60;99.90
27747;DHT22;15138;51.012;4.692;2022-07-17T01:12:44;15.70;99.90
27747;DHT22;15138;51.012;4.692;2022-07-17T01:15:13;15.50;99.90
27747;DHT22;15138;51.012;4.692;2022-07-17T01:17:42;15.50;99.90
27747;DHT22;15138;51.012;4.692;2022-07-17T01:20:10;15.40;99.90
27747;DHT22;15138;51.012;4.692;2022-07-17T01:22:41;15.40;99.90
27747;DHT22;15138;51.012;4.692;2022-07-17T01:25:09;15.40;99.90
27747;DHT22;15138;51.012;4.692;2022-07-17T01:27:38;15.40;99.90
27747;DHT22;15138;51.012;4.692;2022-07-17T01:30:07;15.40;99.90
27747;DHT22;15138;51.012;4.692;2022-07-17T01:32:36;15.20;99.90
27747;DHT22;15138;51.012;4.692;2022-07-17T01:35:05;15.10;99.90
27747;DHT22;15138;51.012;4.692;2022-07-17T01:37:33;15.20;99.90
27747;DHT22;15138;51.012;4.692;2022-07-17T01:40:02;15.20;99.90
27747;DHT22;15138;51.012;4.692;2022-07-17T01:42:30;15.20;99.90
27747;DHT22;15138;51.012;4.692;2022-07-17T01:44:59;15.10;1.00
27747;DHT22;15138;51.012;4.692;2022-07-17T01:47:26;15.00;1.00
27747;DHT22;15138;51.012;4.692;2022-07-17T01:49:55;15.00;1.00
27747;DHT22;15138;51.012;4.692;2022-07-17T01:52:23;15.00;1.00
27747;DHT22;15138;51.012;4.692;2022-07-17T01:54:51;15.00;99.90
27747;DHT22;15138;51.012;4.692;2022-07-17T01:57:21;15.00;99.90
27747;DHT22;15138;51.012;4.692;2022-07-17T01:59:49;15.00;99.90
27747;DHT22;15138;51.012;4.692;2022-07-17T02:02:17;14.80;99.90
27747;DHT22;15138;51.012;4.692;2022-07-17T02:04:44;14.90;1.00
27747;DHT22;15138;51.012;4.692;2022-07-17T02:07:13;14.90;1.00
27747;DHT22;15138;51.012;4.692;2022-07-17T02:09:41;14.90;1.00
27747;DHT22;15138;51.012;4.692;2022-07-17T02:12:09;14.80;1.00
27747;DHT22;15138;51.012;4.692;2022-07-17T02:14:38;14.80;1.00
27747;DHT22;15138;51.012;4.692;2022-07-17T02:17:06;14.80;10.40
27747;DHT22;15138;51.012;4.692;2022-07-17T02:19:34;14.70;6.20
27747;DHT22;15138;51.012;4.692;2022-07-17T02:22:01;14.70;1.00
27747;DHT22;15138;51.012;4.692;2022-07-17T02:24:29;14.60;49.90
27747;DHT22;15138;51.012;4.692;2022-07-17T02:26:57;14.60;1.00
27747;DHT22;15138;51.012;4.692;2022-07-17T02:29:25;14.60;1.00
27747;DHT22;15138;51.012;4.692;2022-07-17T02:31:54;14.60;1.00
27747;DHT22;15138;51.012;4.692;2022-07-17T02:34:22;14.50;1.00
27747;DHT22;15138;51.012;4.692;2022-07-17T02:36:50;14.60;1.00
27747;DHT22;15138;51.012;4.692;2022-07-17T02:39:18;14.60;1.00
27747;DHT22;15138;51.012;4.692;2022-07-17T02:41:46;14.50;1.00
27747;DHT22;15138;51.012;4.692;2022-07-17T02:44:13;14.50;99.90
27747;DHT22;15138;51.012;4.692;2022-07-17T02:46:41;14.40;1.00
27747;DHT22;15138;51.012;4.692;2022-07-17T02:49:11;14.50;1.00
27747;DHT22;15138;51.012;4.692;2022-07-17T02:51:39;14.50;1.00
27747;DHT22;15138;51.012;4.692;2022-07-17T02:54:07;14.40;1.00
27747;DHT22;15138;51.012;4.692;2022-07-17T02:56:35;14.40;1.00
27747;DHT22;15138;51.012;4.692;2022-07-17T02:59:02;14.40;1.00
27747;DHT22;15138;51.012;4.692;2022-07-17T03:01:31;14.40;1.00
27747;DHT22;15138;51.012;4.692;2022-07-17T03:03:59;14.30;1.00
27747;DHT22;15138;51.012;4.692;2022-07-17T03:06:28;14.30;1.00
27747;DHT22;15138;51.012;4.692;2022-07-17T03:08:56;14.20;99.90
27747;DHT22;15138;51.012;4.692;2022-07-17T03:11:24;14.20;1.00
27747;DHT22;15138;51.012;4.692;2022-07-17T03:13:52;14.30;1.00
27747;DHT22;15138;51.012;4.692;2022-07-17T03:16:20;14.20;99.90
27747;DHT22;15138;51.012;4.692;2022-07-17T03:18:48;14.20;99.90
27747;DHT22;15138;51.012;4.692;2022-07-17T03:21:16;14.10;99.90
27747;DHT22;15138;51.012;4.692;2022-07-17T03:23:45;14.00;66.40
27747;DHT22;15138;51.012;4.692;2022-07-17T03:26:13;13.90;1.00
27747;DHT22;15138;51.012;4.692;2022-07-17T03:28:41;13.90;1.00
27747;DHT22;15138;51.012;4.692;2022-07-17T03:31:09;13.90;99.90
27747;DHT22;15138;51.012;4.692;2022-07-17T03:33:37;13.90;1.00
27747;DHT22;15138;51.012;4.692;2022-07-17T03:36:05;13.80;99.90
27747;DHT22;15138;51.012;4.692;2022-07-17T03:38:33;13.80;99.90
27747;DHT22;15138;51.012;4.692;2022-07-17T03:41:03;13.90;99.90
27747;DHT22;15138;51.012;4.692;2022-07-17T03:43:30;13.80;1.00
27747;DHT22;15138;51.012;4.692;2022-07-17T03:45:58;13.90;99.90
27747;DHT22;15138;51.012;4.692;2022-07-17T03:48:26;13.90;1.00
27747;DHT22;15138;51.012;4.692;2022-07-17T03:50:54;13.80;99.90
27747;DHT22;15138;51.012;4.692;2022-07-17T03:53:22;13.80;1.00
27747;DHT22;15138;51.012;4.692;2022-07-17T03:55:50;13.70;1.00
27747;DHT22;15138;51.012;4.692;2022-07-17T03:58:19;13.80;1.00
27747;DHT22;15138;51.012;4.692;2022-07-17T04:00:47;13.80;1.00
27747;DHT22;15138;51.012;4.692;2022-07-17T04:03:15;13.80;1.00
27747;DHT22;15138;51.012;4.692;2022-07-17T04:05:43;13.70;1.00
27747;DHT22;15138;51.012;4.692;2022-07-17T04:08:11;13.60;99.90
27747;DHT22;15138;51.012;4.692;2022-07-17T04:10:40;13.70;1.00
27747;DHT22;15138;51.012;4.692;2022-07-17T04:13:08;13.80;99.90
27747;DHT22;15138;51.012;4.692;2022-07-17T04:15:37;13.70;99.90
27747;DHT22;15138;51.012;4.692;2022-07-17T04:18:19;13.70;99.90
27747;DHT22;15138;51.012;4.692;2022-07-17T04:20:48;13.70;99.90
27747;DHT22;15138;51.012;4.692;2022-07-17T04:23:16;13.70;93.50
27747;DHT22;15138;51.012;4.692;2022-07-17T04:25:44;13.70;23.00
27747;DHT22;15138;51.012;4.692;2022-07-17T04:28:12;13.70;64.40
27747;DHT22;15138;51.012;4.692;2022-07-17T04:30:41;13.70;1.00
27747;DHT22;15138;51.012;4.692;2022-07-17T04:33:09;13.80;1.00
27747;DHT22;15138;51.012;4.692;2022-07-17T04:35:37;13.90;1.00
27747;DHT22;15138;51.012;4.692;2022-07-17T04:38:05;13.90;99.90
27747;DHT22;15138;51.012;4.692;2022-07-17T04:40:34;13.90;1.00
27747;DHT22;15138;51.012;4.692;2022-07-17T04:43:02;13.90;48.40
27747;DHT22;15138;51.012;4.692;2022-07-17T04:45:30;13.90;1.00
27747;DHT22;15138;51.012;4.692;2022-07-17T04:48:00;14.00;99.90
27747;DHT22;15138;51.012;4.692;2022-07-17T04:50:28;14.00;99.90
27747;DHT22;15138;51.012;4.692;2022-07-17T04:52:55;14.00;64.10
27747;DHT22;15138;51.012;4.692;2022-07-17T04:55:23;14.10;37.40
27747;DHT22;15138;51.012;4.692;2022-07-17T04:57:51;14.10;1.00
27747;DHT22;15138;51.012;4.692;2022-07-17T05:00:20;14.10;1.00
27747;DHT22;15138;51.012;4.692;2022-07-17T05:02:48;14.10;99.90
27747;DHT22;15138;51.012;4.692;2022-07-17T05:05:17;14.20;99.90
27747;DHT22;15138;51.012;4.692;2022-07-17T05:07:45;14.20;99.90
27747;DHT22;15138;51.012;4.692;2022-07-17T05:10:13;14.10;70.30
27747;DHT22;15138;51.012;4.692;2022-07-17T05:12:41;14.10;1.00
27747;DHT22;15138;51.012;4.692;2022-07-17T05:15:09;14.00;61.40
27747;DHT22;15138;51.012;4.692;2022-07-17T05:17:37;14.20;1.00
27747;DHT22;15138;51.012;4.692;2022-07-17T05:20:05;14.30;99.90
27747;DHT22;15138;51.012;4.692;2022-07-17T05:22:35;14.50;99.90
27747;DHT22;15138;51.012;4.692;2022-07-17T05:25:04;14.50;99.90
27747;DHT22;15138;51.012;4.692;2022-07-17T05:27:32;14.60;1.00
27747;DHT22;15138;51.012;4.692;2022-07-17T05:30:00;14.70;1.00
27747;DHT22;15138;51.012;4.692;2022-07-17T05:32:27;14.80;3.30
27747;DHT22;15138;51.012;4.692;2022-07-17T05:34:55;14.90;1.00
27747;DHT22;15138;51.012;4.692;2022-07-17T05:37:23;15.10;99.90
27747;DHT22;15138;51.012;4.692;2022-07-17T05:39:52;15.20;1.00
27747;DHT22;15138;51.012;4.692;2022-07-17T05:42:20;15.40;1.00
27747;DHT22;15138;51.012;4.692;2022-07-17T05:44:48;15.50;1.00
27747;DHT22;15138;51.012;4.692;2022-07-17T05:47:16;15.60;99.90
27747;DHT22;15138;51.012;4.692;2022-07-17T05:49:44;15.60;99.90
27747;DHT22;15138;51.012;4.692;2022-07-17T05:52:12;15.90;99.90
27747;DHT22;15138;51.012;4.692;2022-07-17T05:54:40;16.10;99.90
27747;DHT22;15138;51.012;4.692;2022-07-17T05:57:09;16.30;1.00
27747;DHT22;15138;51.012;4.692;2022-07-17T05:59:37;16.40;99.90
27747;DHT22;15138;51.012;4.692;2022-07-17T06:02:05;16.50;99.90
27747;DHT22;15138;51.012;4.692;2022-07-17T06:04:33;16.70;99.90
27747;DHT22;15138;51.012;4.692;2022-07-17T06:07:01;16.80;99.90
27747;DHT22;15138;51.012;4.692;2022-07-17T06:09:29;16.90;1.00
27747;DHT22;15138;51.012;4.692;2022-07-17T06:11:57;17.00;1.00
27747;DHT22;15138;51.012;4.692;2022-07-17T06:14:26;17.20;99.90
27747;DHT22;15138;51.012;4.692;2022-07-17T06:16:54;17.30;1.00
27747;DHT22;15138;51.012;4.692;2022-07-17T06:19:22;17.50;1.00
27747;DHT22;15138;51.012;4.692;2022-07-17T06:21:50;17.60;1.00
27747;DHT22;15138;51.012;4.692;2022-07-17T06:24:17;17.90;99.90
27747;DHT22;15138;51.012;4.692;2022-07-17T06:26:45;17.90;99.90
27747;DHT22;15138;51.012;4.692;2022-07-17T06:29:13;18.20;99.90
27747;DHT22;15138;51.012;4.692;2022-07-17T06:31:42;18.30;1.00
27747;DHT22;15138;51.012;4.692;2022-07-17T06:34:10;18.40;99.90
27747;DHT22;15138;51.012;4.692;2022-07-17T06:36:38;18.60;1.00
27747;DHT22;15138;51.012;4.692;2022-07-17T06:39:06;18.70;99.90
27747;DHT22;15138;51.012;4.692;2022-07-17T06:41:34;18.90;99.90
27747;DHT22;15138;51.012;4.692;2022-07-17T06:44:02;19.20;99.90
27747;DHT22;15138;51.012;4.692;2022-07-17T06:46:30;19.30;99.90
27747;DHT22;15138;51.012;4.692;2022-07-17T06:48:59;19.40;99.90
27747;DHT22;15138;51.012;4.692;2022-07-17T06:51:27;19.60;16.70
27747;DHT22;15138;51.012;4.692;2022-07-17T06:53:56;19.90;99.90
27747;DHT22;15138;51.012;4.692;2022-07-17T06:56:23;20.10;99.90
27747;DHT22;15138;51.012;4.692;2022-07-17T06:58:51;20.20;1.00
27747;DHT22;15138;51.012;4.692;2022-07-17T07:01:19;20.40;1.00
27747;DHT22;15138;51.012;4.692;2022-07-17T07:03:47;20.60;1.00
27747;DHT22;15138;51.012;4.692;2022-07-17T07:06:16;20.70;1.00
27747;DHT22;15138;51.012;4.692;2022-07-17T07:08:44;20.90;1.00
27747;DHT22;15138;51.012;4.692;2022-07-17T07:11:12;21.00;99.90
27747;DHT22;15138;51.012;4.692;2022-07-17T07:13:40;21.20;99.90
27747;DHT22;15138;51.012;4.692;2022-07-17T07:16:08;21.50;99.90
27747;DHT22;15138;51.012;4.692;2022-07-17T07:18:37;21.50;99.90
27747;DHT22;15138;51.012;4.692;2022-07-17T07:21:05;21.50;99.90
27747;DHT22;15138;51.012;4.692;2022-07-17T07:23:34;21.70;99.90
27747;DHT22;15138;51.012;4.692;2022-07-17T07:26:02;21.90;99.90
27747;DHT22;15138;51.012;4.692;2022-07-17T07:28:30;22.10;99.90
27747;DHT22;15138;51.012;4.692;2022-07-17T07:30:58;22.20;97.00
27747;DHT22;15138;51.012;4.692;2022-07-17T07:33:26;22.30;99.90
27747;DHT22;15138;51.012;4.692;2022-07-17T07:35:53;22.60;99.90
27747;DHT22;15138;51.012;4.692;2022-07-17T07:38:21;22.70;1.00
27747;DHT22;15138;51.012;4.692;2022-07-17T07:40:51;23.00;1.00
27747;DHT22;15138;51.012;4.692;2022-07-17T07:43:19;23.10;1.00
27747;DHT22;15138;51.012;4.692;2022-07-17T07:45:47;23.40;1.00
27747;DHT22;15138;51.012;4.692;2022-07-17T07:48:15;23.50;1.00
27747;DHT22;15138;51.012;4.692;2022-07-17T07:50:43;23.70;1.00
27747;DHT22;15138;51.012;4.692;2022-07-17T07:53:11;24.00;1.00
27747;DHT22;15138;51.012;4.692;2022-07-17T07:55:38;24.10;1.00
27747;DHT22;15138;51.012;4.692;2022-07-17T07:58:09;24.30;1.00
27747;DHT22;15138;51.012;4.692;2022-07-17T08:00:38;24.60;99.90
27747;DHT22;15138;51.012;4.692;2022-07-17T08:03:06;24.60;99.90
27747;DHT22;15138;51.012;4.692;2022-07-17T08:05:34;24.60;99.90
27747;DHT22;15138;51.012;4.692;2022-07-17T08:08:02;24.70;99.90
27747;DHT22;15138;51.012;4.692;2022-07-17T08:10:30;24.80;99.90
27747;DHT22;15138;51.012;4.692;2022-07-17T08:12:58;24.50;99.90
27747;DHT22;15138;51.012;4.692;2022-07-17T08:15:28;24.50;99.90
27747;DHT22;15138;51.012;4.692;2022-07-17T08:17:56;24.70;99.90
27747;DHT22;15138;51.012;4.692;2022-07-17T08:20:24;24.70;99.90
27747;DHT22;15138;51.012;4.692;2022-07-17T08:22:52;24.40;99.90
27747;DHT22;15138;51.012;4.692;2022-07-17T08:25:31;24.60;99.90
27747;DHT22;15138;51.012;4.692;2022-07-17T08:28:01;25.30;99.90
27747;DHT22;15138;51.012;4.692;2022-07-17T08:30:31;25.80;99.90
27747;DHT22;15138;51.012;4.692;2022-07-17T08:33:02;26.00;99.90
27747;DHT22;15138;51.012;4.692;2022-07-17T08:35:30;26.30;99.90
27747;DHT22;15138;51.012;4.692;2022-07-17T08:37:58;26.40;99.90
27747;DHT22;15138;51.012;4.692;2022-07-17T08:40:28;26.40;99.90
27747;DHT22;15138;51.012;4.692;2022-07-17T08:42:58;26.40;99.90
27747;DHT22;15138;51.012;4.692;2022-07-17T08:45:26;26.90;99.90
27747;DHT22;15138;51.012;4.692;2022-07-17T08:47:55;26.90;96.50
27747;DHT22;15138;51.012;4.692;2022-07-17T08:50:24;27.20;99.90
27747;DHT22;15138;51.012;4.692;2022-07-17T08:52:52;27.30;93.00
27747;DHT22;15138;51.012;4.692;2022-07-17T08:55:20;27.70;74.80
27747;DHT22;15138;51.012;4.692;2022-07-17T08:57:48;27.70;43.40
27747;DHT22;15138;51.012;4.692;2022-07-17T09:00:17;27.70;23.80
27747;DHT22;15138;51.012;4.692;2022-07-17T09:02:52;27.80;36.30
27747;DHT22;15138;51.012;4.692;2022-07-17T09:05:22;28.30;33.90
27747;DHT22;15138;51.012;4.692;2022-07-17T09:07:51;28.50;9.20
27747;DHT22;15138;51.012;4.692;2022-07-17T09:10:29;28.70;13.00
27747;DHT22;15138;51.012;4.692;2022-07-17T09:12:57;29.00;9.10
27747;DHT22;15138;51.012;4.692;2022-07-17T09:15:25;28.80;1.50
27747;DHT22;15138;51.012;4.692;2022-07-17T09:17:54;29.10;1.00
27747;DHT22;15138;51.012;4.692;2022-07-17T09:20:24;29.10;1.00
27747;DHT22;15138;51.012;4.692;2022-07-17T09:22:55;28.70;1.00
27747;DHT22;15138;51.012;4.692;2022-07-17T09:25:33;28.80;1.00
27747;DHT22;15138;51.012;4.692;2022-07-17T09:28:01;29.30;1.00
27747;DHT22;15138;51.012;4.692;2022-07-17T09:30:30;29.30;1.00
27747;DHT22;15138;51.012;4.692;2022-07-17T09:32:59;29.60;1.00
27747;DHT22;15138;51.012;4.692;2022-07-17T09:35:28;30.00;1.00
27747;DHT22;15138;51.012;4.692;2022-07-17T09:37:57;29.80;1.00
27747;DHT22;15138;51.012;4.692;2022-07-17T09:40:27;29.90;1.00
27747;DHT22;15138;51.012;4.692;2022-07-17T09:43:13;30.30;1.00
27747;DHT22;15138;51.012;4.692;2022-07-17T09:45:41;30.60;1.00
27747;DHT22;15138;51.012;4.692;2022-07-17T09:48:09;30.80;1.00
27747;DHT22;15138;51.012;4.692;2022-07-17T09:50:40;31.00;1.00
27747;DHT22;15138;51.012;4.692;2022-07-17T09:53:08;31.20;1.00
27747;DHT22;15138;51.012;4.692;2022-07-17T09:55:37;31.10;1.00
27747;DHT22;15138;51.012;4.692;2022-07-17T09:58:14;31.30;1.00
27747;DHT22;15138;51.012;4.692;2022-07-17T10:00:45;31.10;1.00
27747;DHT22;15138;51.012;4.692;2022-07-17T10:03:16;31.40;1.00
27747;DHT22;15138;51.012;4.692;2022-07-17T10:05:46;31.50;1.00
27747;DHT22;15138;51.012;4.692;2022-07-17T10:08:14;32.00;1.00
27747;DHT22;15138;51.012;4.692;2022-07-17T10:10:42;32.10;1.00
27747;DHT22;15138;51.012;4.692;2022-07-17T10:13:10;31.50;1.00
27747;DHT22;15138;51.012;4.692;2022-07-17T10:15:39;31.10;1.00
27747;DHT22;15138;51.012;4.692;2022-07-17T10:18:08;31.80;1.00
27747;DHT22;15138;51.012;4.692;2022-07-17T10:20:35;32.10;1.00
27747;DHT22;15138;51.012;4.692;2022-07-17T10:23:12;32.00;1.00
27747;DHT22;15138;51.012;4.692;2022-07-17T10:25:40;32.70;1.00
27747;DHT22;15138;51.012;4.692;2022-07-17T10:28:09;32.90;1.00
27747;DHT22;15138;51.012;4.692;2022-07-17T10:30:41;32.90;1.00
27747;DHT22;15138;51.012;4.692;2022-07-17T10:33:09;32.80;1.00
27747;DHT22;15138;51.012;4.692;2022-07-17T10:35:46;33.10;1.00
27747;DHT22;15138;51.012;4.692;2022-07-17T10:38:15;33.30;1.00
27747;DHT22;15138;51.012;4.692;2022-07-17T10:40:43;33.50;1.00
27747;DHT22;15138;51.012;4.692;2022-07-17T10:43:11;32.10;1.00
27747;DHT22;15138;51.012;4.692;2022-07-17T10:45:40;31.90;1.00
27747;DHT22;15138;51.012;4.692;2022-07-17T10:48:10;32.30;1.00
27747;DHT22;15138;51.012;4.692;2022-07-17T10:50:40;32.70;1.00
27747;DHT22;15138;51.012;4.692;2022-07-17T10:53:10;32.80;1.00
27747;DHT22;15138;51.012;4.692;2022-07-17T10:55:40;33.00;1.00
27747;DHT22;15138;51.012;4.692;2022-07-17T10:58:15;33.30;1.00
27747;DHT22;15138;51.012;4.692;2022-07-17T11:00:54;33.70;1.00
27747;DHT22;15138;51.012;4.692;2022-07-17T11:03:22;34.10;1.00
27747;DHT22;15138;51.012;4.692;2022-07-17T11:05:50;34.30;1.00
27747;DHT22;15138;51.012;4.692;2022-07-17T11:08:18;34.00;1.00
27747;DHT22;15138;51.012;4.692;2022-07-17T11:10:47;33.50;1.00
27747;DHT22;15138;51.012;4.692;2022-07-17T11:13:16;33.90;1.00
27747;DHT22;15138;51.012;4.692;2022-07-17T11:15:45;34.50;1.00
27747;DHT22;15138;51.012;4.692;2022-07-17T11:18:14;34.60;1.00
27747;DHT22;15138;51.012;4.692;2022-07-17T11:20:46;35.00;1.00
27747;DHT22;15138;51.012;4.692;2022-07-17T11:23:14;35.20;1.00
27747;DHT22;15138;51.012;4.692;2022-07-17T11:25:52;35.50;99.90
27747;DHT22;15138;51.012;4.692;2022-07-17T11:28:27;35.50;99.90
27747;DHT22;15138;51.012;4.692;2022-07-17T11:30:54;34.30;1.00
27747;DHT22;15138;51.012;4.692;2022-07-17T11:33:22;35.00;1.00
27747;DHT22;15138;51.012;4.692;2022-07-17T11:35:51;35.50;1.00
27747;DHT22;15138;51.012;4.692;2022-07-17T11:38:25;34.80;1.00
27747;DHT22;15138;51.012;4.692;2022-07-17T11:40:54;35.10;1.00
27747;DHT22;15138;51.012;4.692;2022-07-17T11:43:28;35.10;1.00
27747;DHT22;15138;51.012;4.692;2022-07-17T11:45:55;35.20;1.00
27747;DHT22;15138;51.012;4.692;2022-07-17T11:48:23;35.30;1.00
27747;DHT22;15138;51.012;4.692;2022-07-17T11:50:52;35.50;1.00
27747;DHT22;15138;51.012;4.692;2022-07-17T11:53:30;35.70;1.00
27747;DHT22;15138;51.012;4.692;2022-07-17T11:55:59;35.50;1.00
27747;DHT22;15138;51.012;4.692;2022-07-17T11:58:39;35.50;1.00
27747;DHT22;15138;51.012;4.692;2022-07-17T12:01:07;35.80;1.00
27747;DHT22;15138;51.012;4.692;2022-07-17T12:03:35;36.00;1.00
27747;DHT22;15138;51.012;4.692;2022-07-17T12:06:03;35.60;1.00
27747;DHT22;15138;51.012;4.692;2022-07-17T12:08:31;36.00;1.00
27747;DHT22;15138;51.012;4.692;2022-07-17T12:11:02;36.40;1.00
27747;DHT22;15138;51.012;4.692;2022-07-17T12:13:41;36.10;1.00
27747;DHT22;15138;51.012;4.692;2022-07-17T12:16:25;36.30;1.00
27747;DHT22;15138;51.012;4.692;2022-07-17T12:18:55;36.20;1.00
27747;DHT22;15138;51.012;4.692;2022-07-17T12:21:23;36.20;1.00
27747;DHT22;15138;51.012;4.692;2022-07-17T12:23:58;36.20;1.00
27747;DHT22;15138;51.012;4.692;2022-07-17T12:26:28;34.70;1.00
27747;DHT22;15138;51.012;4.692;2022-07-17T12:28:57;34.40;1.00
27747;DHT22;15138;51.012;4.692;2022-07-17T12:31:27;35.20;1.00
27747;DHT22;15138;51.012;4.692;2022-07-17T12:33:55;35.80;1.00
27747;DHT22;15138;51.012;4.692;2022-07-17T12:36:23;35.80;1.00
27747;DHT22;15138;51.012;4.692;2022-07-17T12:38:51;35.80;1.00
27747;DHT22;15138;51.012;4.692;2022-07-17T12:41:20;36.00;1.00
27747;DHT22;15138;51.012;4.692;2022-07-17T12:43:49;36.20;1.00
27747;DHT22;15138;51.012;4.692;2022-07-17T12:46:17;35.90;1.00
27747;DHT22;15138;51.012;4.692;2022-07-17T12:48:45;36.10;1.00
27747;DHT22;15138;51.012;4.692;2022-07-17T12:51:13;36.20;1.00
27747;DHT22;15138;51.012;4.692;2022-07-17T12:53:42;36.30;1.00
27747;DHT22;15138;51.012;4.692;2022-07-17T12:56:10;36.30;1.00
27747;DHT22;15138;51.012;4.692;2022-07-17T12:58:38;36.50;1.00
27747;DHT22;15138;51.012;4.692;2022-07-17T13:01:07;35.80;1.00
27747;DHT22;15138;51.012;4.692;2022-07-17T13:03:36;35.80;1.00
27747;DHT22;15138;51.012;4.692;2022-07-17T13:06:04;36.30;1.00
27747;DHT22;15138;51.012;4.692;2022-07-17T13:08:32;36.70;1.00
27747;DHT22;15138;51.012;4.692;2022-07-17T13:11:00;36.50;1.00
27747;DHT22;15138;51.012;4.692;2022-07-17T13:13:36;36.00;1.00
27747;DHT22;15138;51.012;4.692;2022-07-17T13:16:12;36.20;1.00
27747;DHT22;15138;51.012;4.692;2022-07-17T13:18:42;35.80;1.00
27747;DHT22;15138;51.012;4.692;2022-07-17T13:21:10;35.80;1.00
27747;DHT22;15138;51.012;4.692;2022-07-17T13:23:39;35.80;1.00
27747;DHT22;15138;51.012;4.692;2022-07-17T13:26:07;36.20;1.00
27747;DHT22;15138;51.012;4.692;2022-07-17T13:28:43;36.10;1.00
27747;DHT22;15138;51.012;4.692;2022-07-17T13:31:13;35.70;1.00
27747;DHT22;15138;51.012;4.692;2022-07-17T13:33:41;35.70;1.00
27747;DHT22;15138;51.012;4.692;2022-07-17T13:36:09;36.00;1.00
27747;DHT22;15138;51.012;4.692;2022-07-17T13:38:37;35.80;1.00
27747;DHT22;15138;51.012;4.692;2022-07-17T13:41:05;35.30;1.00
27747;DHT22;15138;51.012;4.692;2022-07-17T13:43:33;34.30;1.00
27747;DHT22;15138;51.012;4.692;2022-07-17T13:46:01;35.00;1.00
27747;DHT22;15138;51.012;4.692;2022-07-17T13:48:31;35.30;1.00
27747;DHT22;15138;51.012;4.692;2022-07-17T13:50:59;35.30;1.00
27747;DHT22;15138;51.012;4.692;2022-07-17T13:53:28;34.80;1.00
27747;DHT22;15138;51.012;4.692;2022-07-17T13:55:57;35.20;1.00
27747;DHT22;15138;51.012;4.692;2022-07-17T13:58:25;34.90;1.00
27747;DHT22;15138;51.012;4.692;2022-07-17T14:00:53;35.40;1.00
27747;DHT22;15138;51.012;4.692;2022-07-17T14:03:22;35.40;1.00
27747;DHT22;15138;51.012;4.692;2022-07-17T14:05:51;35.50;1.00
27747;DHT22;15138;51.012;4.692;2022-07-17T14:08:19;35.30;99.90
27747;DHT22;15138;51.012;4.692;2022-07-17T14:10:47;34.90;99.90
27747;DHT22;15138;51.012;4.692;2022-07-17T14:13:15;35.40;1.00
27747;DHT22;15138;51.012;4.692;2022-07-17T14:15:43;35.30;1.00
27747;DHT22;15138;51.012;4.692;2022-07-17T14:18:11;35.20;99.90
27747;DHT22;15138;51.012;4.692;2022-07-17T14:20:40;34.40;99.90
27747;DHT22;15138;51.012;4.692;2022-07-17T14:23:09;34.80;1.00
27747;DHT22;15138;51.012;4.692;2022-07-17T14:25:38;35.20;1.00
27747;DHT22;15138;51.012;4.692;2022-07-17T14:28:09;35.40;1.00
27747;DHT22;15138;51.012;4.692;2022-07-17T14:30:37;35.40;1.00
27747;DHT22;15138;51.012;4.692;2022-07-17T14:33:05;35.30;1.00
27747;DHT22;15138;51.012;4.692;2022-07-17T14:35:33;35.40;1.00
27747;DHT22;15138;51.012;4.692;2022-07-17T14:38:01;35.50;1.00
27747;DHT22;15138;51.012;4.692;2022-07-17T14:40:34;35.50;1.00
27747;DHT22;15138;51.012;4.692;2022-07-17T14:43:02;35.50;99.90
27747;DHT22;15138;51.012;4.692;2022-07-17T14:45:30;35.50;1.00
27747;DHT22;15138;51.012;4.692;2022-07-17T14:47:57;35.60;1.00
27747;DHT22;15138;51.012;4.692;2022-07-17T14:50:25;34.80;99.90
27747;DHT22;15138;51.012;4.692;2022-07-17T14:52:53;35.10;1.00
27747;DHT22;15138;51.012;4.692;2022-07-17T14:55:21;35.20;99.90
27747;DHT22;15138;51.012;4.692;2022-07-17T14:57:53;35.30;1.00
27747;DHT22;15138;51.012;4.692;2022-07-17T15:00:21;35.30;99.90
27747;DHT22;15138;51.012;4.692;2022-07-17T15:02:49;35.20;99.90
27747;DHT22;15138;51.012;4.692;2022-07-17T15:05:17;34.90;99.90
27747;DHT22;15138;51.012;4.692;2022-07-17T15:07:45;34.90;99.90
27747;DHT22;15138;51.012;4.692;2022-07-17T15:10:13;35.10;99.90
27747;DHT22;15138;51.012;4.692;2022-07-17T15:12:41;35.10;99.90
27747;DHT22;15138;51.012;4.692;2022-07-17T15:15:10;35.20;99.90
27747;DHT22;15138;51.012;4.692;2022-07-17T15:17:39;35.00;99.90
27747;DHT22;15138;51.012;4.692;2022-07-17T15:20:07;34.80;99.90
27747;DHT22;15138;51.012;4.692;2022-07-17T15:22:35;34.50;99.90
27747;DHT22;15138;51.012;4.692;2022-07-17T15:25:03;34.60;99.90
27747;DHT22;15138;51.012;4.692;2022-07-17T15:27:31;34.60;99.90
27747;DHT22;15138;51.012;4.692;2022-07-17T15:29:59;34.70;99.90
27747;DHT22;15138;51.012;4.692;2022-07-17T15:32:28;34.70;99.90
27747;DHT22;15138;51.012;4.692;2022-07-17T15:34:56;34.70;99.90
27747;DHT22;15138;51.012;4.692;2022-07-17T15:37:24;34.70;99.90
27747;DHT22;15138;51.012;4.692;2022-07-17T15:39:52;34.70;99.90
27747;DHT22;15138;51.012;4.692;2022-07-17T15:42:20;34.60;99.90
27747;DHT22;15138;51.012;4.692;2022-07-17T15:44:48;34.60;99.90
27747;DHT22;15138;51.012;4.692;2022-07-17T15:47:21;34.40;99.90
27747;DHT22;15138;51.012;4.692;2022-07-17T15:49:50;34.00;99.90